sensor_id;sensor_type;location;lat;lon;timestamp;temperature;humidity
66928;DHT22;59882;45.624;11.698;2023-03-08T00:00:39;9.50;72.30
66928;DHT22;59882;45.624;11.698;2023-03-08T00:03:05;9.50;71.50
66928;DHT22;59882;45.624;11.698;2023-03-08T00:05:31;9.50;72.10
66928;DHT22;59882;45.624;11.698;2023-03-08T00:07:56;9.50;72.20
66928;DHT22;59882;45.624;11.698;2023-03-08T00:10:22;9.50;71.50
66928;DHT22;59882;45.624;11.698;2023-03-08T00:12:48;9.50;72.10
66928;DHT22;59882;45.624;11.698;2023-03-08T00:15:14;9.50;72.20
66928;DHT22;59882;45.624;11.698;2023-03-08T00:17:40;9.40;72.20
66928;DHT22;59882;45.624;11.698;2023-03-08T00:20:07;9.40;71.70
66928;DHT22;59882;45.624;11.698;2023-03-08T00:22:35;9.30;71.80
66928;DHT22;59882;45.624;11.698;2023-03-08T00:25:01;9.30;72.00
66928;DHT22;59882;45.624;11.698;2023-03-08T00:27:27;9.20;72.10
66928;DHT22;59882;45.624;11.698;2023-03-08T00:29:53;9.10;72.40
66928;DHT22;59882;45.624;11.698;2023-03-08T00:32:18;8.90;72.10
66928;DHT22;59882;45.624;11.698;2023-03-08T00:34:44;8.80;71.60
66928;DHT22;59882;45.624;11.698;2023-03-08T00:37:12;8.80;71.80
66928;DHT22;59882;45.624;11.698;2023-03-08T00:39:38;8.70;71.60
66928;DHT22;59882;45.624;11.698;2023-03-08T00:42:03;8.70;72.00
66928;DHT22;59882;45.624;11.698;2023-03-08T00:44:29;8.60;72.20
66928;DHT22;59882;45.624;11.698;2023-03-08T00:46:55;8.50;72.50
66928;DHT22;59882;45.624;11.698;2023-03-08T00:49:20;8.40;73.00
66928;DHT22;59882;45.624;11.698;2023-03-08T00:51:47;8.40;72.50
66928;DHT22;59882;45.624;11.698;2023-03-08T00:54:13;8.40;72.70
66928;DHT22;59882;45.624;11.698;2023-03-08T00:56:39;8.40;72.50
66928;DHT22;59882;45.624;11.698;2023-03-08T00:59:05;8.50;72.60
66928;DHT22;59882;45.624;11.698;2023-03-08T01:01:31;8.50;72.70
66928;DHT22;59882;45.624;11.698;2023-03-08T01:03:57;8.40;72.90
66928;DHT22;59882;45.624;11.698;2023-03-08T01:06:22;8.40;72.90
66928;DHT22;59882;45.624;11.698;2023-03-08T01:08:48;8.40;72.40
66928;DHT22;59882;45.624;11.698;2023-03-08T01:11:16;8.40;72.50
66928;DHT22;59882;45.624;11.698;2023-03-08T01:13:42;8.40;73.00
66928;DHT22;59882;45.624;11.698;2023-03-08T01:16:40;8.30;72.50
66928;DHT22;59882;45.624;11.698;2023-03-08T01:19:06;8.30;72.80
66928;DHT22;59882;45.624;11.698;2023-03-08T01:21:32;8.40;73.10
66928;DHT22;59882;45.624;11.698;2023-03-08T01:23:58;8.30;73.30
66928;DHT22;59882;45.624;11.698;2023-03-08T01:26:25;8.30;72.90
66928;DHT22;59882;45.624;11.698;2023-03-08T01:28:51;8.20;72.50
66928;DHT22;59882;45.624;11.698;2023-03-08T01:31:25;8.20;72.40
66928;DHT22;59882;45.624;11.698;2023-03-08T01:33:51;8.20;72.40
66928;DHT22;59882;45.624;11.698;2023-03-08T01:36:19;8.10;72.40
66928;DHT22;59882;45.624;11.698;2023-03-08T01:38:46;8.00;72.50
66928;DHT22;59882;45.624;11.698;2023-03-08T01:41:15;7.90;72.60
66928;DHT22;59882;45.624;11.698;2023-03-08T01:43:41;7.80;72.70
66928;DHT22;59882;45.624;11.698;2023-03-08T01:46:29;7.80;73.00
66928;DHT22;59882;45.624;11.698;2023-03-08T01:51:32;7.70;72.70
66928;DHT22;59882;45.624;11.698;2023-03-08T01:54:02;7.70;73.10
66928;DHT22;59882;45.624;11.698;2023-03-08T01:56:29;7.70;73.20
66928;DHT22;59882;45.624;11.698;2023-03-08T01:58:54;7.60;73.10
66928;DHT22;59882;45.624;11.698;2023-03-08T02:01:21;7.60;72.60
66928;DHT22;59882;45.624;11.698;2023-03-08T02:03:47;7.60;72.40
66928;DHT22;59882;45.624;11.698;2023-03-08T02:06:14;7.60;72.40
66928;DHT22;59882;45.624;11.698;2023-03-08T02:08:40;7.50;72.70
66928;DHT22;59882;45.624;11.698;2023-03-08T02:11:07;7.40;72.60
66928;DHT22;59882;45.624;11.698;2023-03-08T02:13:33;7.40;72.80
66928;DHT22;59882;45.624;11.698;2023-03-08T02:15:59;7.30;73.30
66928;DHT22;59882;45.624;11.698;2023-03-08T02:18:27;7.10;74.10
66928;DHT22;59882;45.624;11.698;2023-03-08T02:20:53;7.10;74.10
66928;DHT22;59882;45.624;11.698;2023-03-08T02:23:23;7.00;73.80
66928;DHT22;59882;45.624;11.698;2023-03-08T02:26:07;7.00;73.60
66928;DHT22;59882;45.624;11.698;2023-03-08T02:28:33;7.00;73.10
66928;DHT22;59882;45.624;11.698;2023-03-08T02:30:59;7.10;72.80
66928;DHT22;59882;45.624;11.698;2023-03-08T02:33:25;7.10;72.90
66928;DHT22;59882;45.624;11.698;2023-03-08T02:35:51;7.00;73.10
66928;DHT22;59882;45.624;11.698;2023-03-08T02:38:18;7.00;73.40
66928;DHT22;59882;45.624;11.698;2023-03-08T02:40:44;7.00;73.30
66928;DHT22;59882;45.624;11.698;2023-03-08T02:43:10;7.00;73.20
66928;DHT22;59882;45.624;11.698;2023-03-08T02:45:36;7.00;73.70
66928;DHT22;59882;45.624;11.698;2023-03-08T02:48:03;7.00;73.70
66928;DHT22;59882;45.624;11.698;2023-03-08T02:50:29;7.00;73.50
66928;DHT22;59882;45.624;11.698;2023-03-08T02:52:56;7.00;73.20
66928;DHT22;59882;45.624;11.698;2023-03-08T02:55:21;7.00;73.10
66928;DHT22;59882;45.624;11.698;2023-03-08T02:57:47;7.00;73.50
66928;DHT22;59882;45.624;11.698;2023-03-08T03:00:13;7.00;73.40
66928;DHT22;59882;45.624;11.698;2023-03-08T03:02:39;7.10;73.10
66928;DHT22;59882;45.624;11.698;2023-03-08T03:05:07;7.00;73.50
66928;DHT22;59882;45.624;11.698;2023-03-08T03:07:39;6.90;73.20
66928;DHT22;59882;45.624;11.698;2023-03-08T03:10:06;7.00;73.30
66928;DHT22;59882;45.624;11.698;2023-03-08T03:12:32;7.00;73.60
66928;DHT22;59882;45.624;11.698;2023-03-08T03:14:57;6.90;73.50
66928;DHT22;59882;45.624;11.698;2023-03-08T03:17:25;6.90;73.60
66928;DHT22;59882;45.624;11.698;2023-03-08T03:19:50;6.90;73.20
66928;DHT22;59882;45.624;11.698;2023-03-08T03:22:16;6.90;73.30
66928;DHT22;59882;45.624;11.698;2023-03-08T03:24:41;7.00;73.40
66928;DHT22;59882;45.624;11.698;2023-03-08T03:27:07;7.00;73.20
66928;DHT22;59882;45.624;11.698;2023-03-08T03:29:32;7.00;73.20
66928;DHT22;59882;45.624;11.698;2023-03-08T03:31:58;7.00;73.00
66928;DHT22;59882;45.624;11.698;2023-03-08T03:34:24;7.00;73.20
66928;DHT22;59882;45.624;11.698;2023-03-08T03:36:49;7.00;73.20
66928;DHT22;59882;45.624;11.698;2023-03-08T03:39:15;7.00;73.20
66928;DHT22;59882;45.624;11.698;2023-03-08T03:41:40;7.00;73.10
66928;DHT22;59882;45.624;11.698;2023-03-08T03:44:06;7.00;73.10
66928;DHT22;59882;45.624;11.698;2023-03-08T03:46:32;7.00;73.20
66928;DHT22;59882;45.624;11.698;2023-03-08T03:48:57;6.90;73.30
66928;DHT22;59882;45.624;11.698;2023-03-08T03:51:23;6.90;73.30
66928;DHT22;59882;45.624;11.698;2023-03-08T03:53:49;6.90;73.30
66928;DHT22;59882;45.624;11.698;2023-03-08T03:56:17;6.80;73.60
66928;DHT22;59882;45.624;11.698;2023-03-08T03:58:44;6.80;73.90
66928;DHT22;59882;45.624;11.698;2023-03-08T04:01:25;6.80;73.70
66928;DHT22;59882;45.624;11.698;2023-03-08T04:03:51;6.80;73.90
66928;DHT22;59882;45.624;11.698;2023-03-08T04:06:23;6.70;73.60
66928;DHT22;59882;45.624;11.698;2023-03-08T04:08:52;6.70;73.40
66928;DHT22;59882;45.624;11.698;2023-03-08T04:11:20;6.70;73.80
66928;DHT22;59882;45.624;11.698;2023-03-08T04:13:47;6.70;73.90
66928;DHT22;59882;45.624;11.698;2023-03-08T04:18:40;6.60;74.30
66928;DHT22;59882;45.624;11.698;2023-03-08T04:21:06;6.60;74.00
66928;DHT22;59882;45.624;11.698;2023-03-08T04:23:32;6.60;74.20
66928;DHT22;59882;45.624;11.698;2023-03-08T04:25:58;6.60;73.60
66928;DHT22;59882;45.624;11.698;2023-03-08T04:28:24;6.60;73.40
66928;DHT22;59882;45.624;11.698;2023-03-08T04:30:49;6.50;73.20
66928;DHT22;59882;45.624;11.698;2023-03-08T04:33:15;6.50;73.00
66928;DHT22;59882;45.624;11.698;2023-03-08T04:35:41;6.50;72.60
66928;DHT22;59882;45.624;11.698;2023-03-08T04:38:06;6.40;72.50
66928;DHT22;59882;45.624;11.698;2023-03-08T04:40:32;6.40;72.40
66928;DHT22;59882;45.624;11.698;2023-03-08T04:43:18;6.40;72.10
66928;DHT22;59882;45.624;11.698;2023-03-08T04:45:43;6.30;72.20
66928;DHT22;59882;45.624;11.698;2023-03-08T04:48:09;6.30;72.20
66928;DHT22;59882;45.624;11.698;2023-03-08T04:50:34;6.30;72.10
66928;DHT22;59882;45.624;11.698;2023-03-08T04:53:00;6.20;71.80
66928;DHT22;59882;45.624;11.698;2023-03-08T04:55:25;6.10;72.10
66928;DHT22;59882;45.624;11.698;2023-03-08T04:57:51;6.00;72.30
66928;DHT22;59882;45.624;11.698;2023-03-08T05:00:17;5.90;72.50
66928;DHT22;59882;45.624;11.698;2023-03-08T05:02:42;5.90;72.50
66928;DHT22;59882;45.624;11.698;2023-03-08T05:05:08;5.80;72.80
66928;DHT22;59882;45.624;11.698;2023-03-08T05:07:33;5.80;72.90
66928;DHT22;59882;45.624;11.698;2023-03-08T05:09:59;5.80;73.10
66928;DHT22;59882;45.624;11.698;2023-03-08T05:12:25;5.80;73.50
66928;DHT22;59882;45.624;11.698;2023-03-08T05:14:50;5.80;73.40
66928;DHT22;59882;45.624;11.698;2023-03-08T05:17:16;5.80;73.70
66928;DHT22;59882;45.624;11.698;2023-03-08T05:19:42;5.80;73.30
66928;DHT22;59882;45.624;11.698;2023-03-08T05:22:07;5.80;73.60
66928;DHT22;59882;45.624;11.698;2023-03-08T05:24:33;5.80;74.10
66928;DHT22;59882;45.624;11.698;2023-03-08T05:26:59;5.80;73.90
66928;DHT22;59882;45.624;11.698;2023-03-08T05:29:24;5.80;73.80
66928;DHT22;59882;45.624;11.698;2023-03-08T05:31:50;5.80;73.60
66928;DHT22;59882;45.624;11.698;2023-03-08T05:34:15;5.90;73.40
66928;DHT22;59882;45.624;11.698;2023-03-08T05:36:41;5.90;73.50
66928;DHT22;59882;45.624;11.698;2023-03-08T05:39:07;5.90;73.30
66928;DHT22;59882;45.624;11.698;2023-03-08T05:41:33;5.90;73.10
66928;DHT22;59882;45.624;11.698;2023-03-08T05:44:02;6.00;73.30
66928;DHT22;59882;45.624;11.698;2023-03-08T05:46:27;6.00;73.20
66928;DHT22;59882;45.624;11.698;2023-03-08T05:48:53;6.00;73.40
66928;DHT22;59882;45.624;11.698;2023-03-08T05:51:19;6.00;73.10
66928;DHT22;59882;45.624;11.698;2023-03-08T05:53:44;6.00;73.20
66928;DHT22;59882;45.624;11.698;2023-03-08T05:58:38;5.90;73.30
66928;DHT22;59882;45.624;11.698;2023-03-08T06:01:14;5.90;73.40
66928;DHT22;59882;45.624;11.698;2023-03-08T06:03:45;5.80;73.70
66928;DHT22;59882;45.624;11.698;2023-03-08T06:06:11;5.80;74.00
66928;DHT22;59882;45.624;11.698;2023-03-08T06:08:37;5.70;74.30
66928;DHT22;59882;45.624;11.698;2023-03-08T06:11:03;5.70;74.80
66928;DHT22;59882;45.624;11.698;2023-03-08T06:13:29;5.60;74.60
66928;DHT22;59882;45.624;11.698;2023-03-08T06:15:56;5.60;74.90
66928;DHT22;59882;45.624;11.698;2023-03-08T06:18:23;5.60;74.80
66928;DHT22;59882;45.624;11.698;2023-03-08T06:21:03;5.60;74.80
66928;DHT22;59882;45.624;11.698;2023-03-08T06:23:30;5.60;74.80
66928;DHT22;59882;45.624;11.698;2023-03-08T06:25:57;5.70;74.90
66928;DHT22;59882;45.624;11.698;2023-03-08T06:28:23;5.70;74.80
66928;DHT22;59882;45.624;11.698;2023-03-08T06:30:49;5.70;74.50
66928;DHT22;59882;45.624;11.698;2023-03-08T06:33:20;5.80;75.00
66928;DHT22;59882;45.624;11.698;2023-03-08T06:38:21;5.80;74.70
66928;DHT22;59882;45.624;11.698;2023-03-08T06:40:46;5.80;74.80
66928;DHT22;59882;45.624;11.698;2023-03-08T06:43:12;5.80;74.70
66928;DHT22;59882;45.624;11.698;2023-03-08T06:45:37;5.80;75.00
66928;DHT22;59882;45.624;11.698;2023-03-08T06:48:03;5.80;74.80
66928;DHT22;59882;45.624;11.698;2023-03-08T06:50:29;5.80;75.20
66928;DHT22;59882;45.624;11.698;2023-03-08T06:52:55;5.90;75.30
66928;DHT22;59882;45.624;11.698;2023-03-08T06:55:21;5.90;75.40
66928;DHT22;59882;45.624;11.698;2023-03-08T06:57:47;6.00;75.30
66928;DHT22;59882;45.624;11.698;2023-03-08T07:00:13;6.10;74.80
66928;DHT22;59882;45.624;11.698;2023-03-08T07:02:38;6.10;74.70
66928;DHT22;59882;45.624;11.698;2023-03-08T07:05:04;6.20;74.30
66928;DHT22;59882;45.624;11.698;2023-03-08T07:07:30;6.20;74.20
66928;DHT22;59882;45.624;11.698;2023-03-08T07:09:56;6.30;74.50
66928;DHT22;59882;45.624;11.698;2023-03-08T07:12:22;6.30;75.00
66928;DHT22;59882;45.624;11.698;2023-03-08T07:14:50;6.40;75.20
66928;DHT22;59882;45.624;11.698;2023-03-08T07:17:15;6.50;75.50
66928;DHT22;59882;45.624;11.698;2023-03-08T07:19:41;6.60;75.10
66928;DHT22;59882;45.624;11.698;2023-03-08T07:22:07;6.70;74.90
66928;DHT22;59882;45.624;11.698;2023-03-08T07:24:32;6.80;74.80
66928;DHT22;59882;45.624;11.698;2023-03-08T07:26:58;6.80;75.00
66928;DHT22;59882;45.624;11.698;2023-03-08T07:29:23;6.90;75.30
66928;DHT22;59882;45.624;11.698;2023-03-08T07:31:49;7.00;75.50
66928;DHT22;59882;45.624;11.698;2023-03-08T07:34:14;7.10;76.10
66928;DHT22;59882;45.624;11.698;2023-03-08T07:36:40;7.10;75.50
66928;DHT22;59882;45.624;11.698;2023-03-08T07:39:06;7.20;75.70
66928;DHT22;59882;45.624;11.698;2023-03-08T07:41:31;7.20;75.90
66928;DHT22;59882;45.624;11.698;2023-03-08T07:43:59;7.30;75.90
66928;DHT22;59882;45.624;11.698;2023-03-08T07:46:24;7.30;75.50
66928;DHT22;59882;45.624;11.698;2023-03-08T07:48:51;7.40;75.70
66928;DHT22;59882;45.624;11.698;2023-03-08T07:51:17;7.50;75.20
66928;DHT22;59882;45.624;11.698;2023-03-08T07:53:44;7.60;75.20
66928;DHT22;59882;45.624;11.698;2023-03-08T07:56:09;7.60;75.50
66928;DHT22;59882;45.624;11.698;2023-03-08T07:58:36;7.70;77.70
66928;DHT22;59882;45.624;11.698;2023-03-08T08:01:09;7.80;76.90
66928;DHT22;59882;45.624;11.698;2023-03-08T08:03:36;7.90;76.60
66928;DHT22;59882;45.624;11.698;2023-03-08T08:06:03;7.90;76.40
66928;DHT22;59882;45.624;11.698;2023-03-08T08:08:29;8.00;77.10
66928;DHT22;59882;45.624;11.698;2023-03-08T08:10:54;8.10;77.80
66928;DHT22;59882;45.624;11.698;2023-03-08T08:13:20;8.10;77.60
66928;DHT22;59882;45.624;11.698;2023-03-08T08:15:46;8.10;77.50
66928;DHT22;59882;45.624;11.698;2023-03-08T08:18:11;8.20;77.70
66928;DHT22;59882;45.624;11.698;2023-03-08T08:20:37;8.20;77.60
66928;DHT22;59882;45.624;11.698;2023-03-08T08:23:04;8.30;77.60
66928;DHT22;59882;45.624;11.698;2023-03-08T08:25:31;8.30;77.50
66928;DHT22;59882;45.624;11.698;2023-03-08T08:27:56;8.40;77.30
66928;DHT22;59882;45.624;11.698;2023-03-08T08:30:22;8.50;76.80
66928;DHT22;59882;45.624;11.698;2023-03-08T08:32:47;8.60;76.20
66928;DHT22;59882;45.624;11.698;2023-03-08T08:35:13;8.70;76.80
66928;DHT22;59882;45.624;11.698;2023-03-08T08:37:39;8.80;76.40
66928;DHT22;59882;45.624;11.698;2023-03-08T08:40:05;8.80;75.90
66928;DHT22;59882;45.624;11.698;2023-03-08T08:42:32;8.90;75.70
66928;DHT22;59882;45.624;11.698;2023-03-08T08:44:58;9.10;75.60
66928;DHT22;59882;45.624;11.698;2023-03-08T08:47:23;9.20;75.50
66928;DHT22;59882;45.624;11.698;2023-03-08T08:49:49;9.30;75.20
66928;DHT22;59882;45.624;11.698;2023-03-08T08:52:15;9.40;75.00
66928;DHT22;59882;45.624;11.698;2023-03-08T08:54:41;9.50;75.20
66928;DHT22;59882;45.624;11.698;2023-03-08T08:57:07;9.60;74.80
66928;DHT22;59882;45.624;11.698;2023-03-08T08:59:32;9.70;74.30
66928;DHT22;59882;45.624;11.698;2023-03-08T09:01:58;9.80;74.40
66928;DHT22;59882;45.624;11.698;2023-03-08T09:04:24;9.90;74.70
66928;DHT22;59882;45.624;11.698;2023-03-08T09:06:50;9.90;74.40
66928;DHT22;59882;45.624;11.698;2023-03-08T09:09:18;10.10;74.60
66928;DHT22;59882;45.624;11.698;2023-03-08T09:11:44;10.20;74.10
66928;DHT22;59882;45.624;11.698;2023-03-08T09:14:12;10.30;73.70
66928;DHT22;59882;45.624;11.698;2023-03-08T09:16:37;10.40;73.30
66928;DHT22;59882;45.624;11.698;2023-03-08T09:19:03;10.50;73.40
66928;DHT22;59882;45.624;11.698;2023-03-08T09:21:30;10.50;73.60
66928;DHT22;59882;45.624;11.698;2023-03-08T09:23:59;10.60;73.20
66928;DHT22;59882;45.624;11.698;2023-03-08T09:26:28;10.70;73.00
66928;DHT22;59882;45.624;11.698;2023-03-08T09:28:54;10.80;73.10
66928;DHT22;59882;45.624;11.698;2023-03-08T09:31:19;10.90;72.80
66928;DHT22;59882;45.624;11.698;2023-03-08T09:33:49;10.90;72.90
66928;DHT22;59882;45.624;11.698;2023-03-08T09:36:19;11.10;73.10
66928;DHT22;59882;45.624;11.698;2023-03-08T09:38:49;11.10;73.00
66928;DHT22;59882;45.624;11.698;2023-03-08T09:47:27;11.40;72.30
66928;DHT22;59882;45.624;11.698;2023-03-08T09:49:28;11.60;72.30
66928;DHT22;59882;45.624;11.698;2023-03-08T09:52:07;11.70;71.80
66928;DHT22;59882;45.624;11.698;2023-03-08T09:54:37;11.80;70.70
66928;DHT22;59882;45.624;11.698;2023-03-08T09:57:05;11.90;71.20
66928;DHT22;59882;45.624;11.698;2023-03-08T09:59:44;11.90;71.30
66928;DHT22;59882;45.624;11.698;2023-03-08T10:02:45;12.10;70.60
66928;DHT22;59882;45.624;11.698;2023-03-08T10:05:40;12.20;69.60
66928;DHT22;59882;45.624;11.698;2023-03-08T10:11:02;12.40;69.10
66928;DHT22;59882;45.624;11.698;2023-03-08T10:13:35;12.40;67.60
66928;DHT22;59882;45.624;11.698;2023-03-08T10:18:39;12.50;67.40
66928;DHT22;59882;45.624;11.698;2023-03-08T10:21:10;12.50;67.80
66928;DHT22;59882;45.624;11.698;2023-03-08T10:23:39;12.60;68.00
66928;DHT22;59882;45.624;11.698;2023-03-08T10:26:10;12.60;68.10
66928;DHT22;59882;45.624;11.698;2023-03-08T10:28:36;12.70;67.80
66928;DHT22;59882;45.624;11.698;2023-03-08T10:31:04;12.80;67.30
66928;DHT22;59882;45.624;11.698;2023-03-08T10:33:40;12.80;65.90
66928;DHT22;59882;45.624;11.698;2023-03-08T10:36:15;12.90;66.40
66928;DHT22;59882;45.624;11.698;2023-03-08T10:38:42;12.80;66.70
66928;DHT22;59882;45.624;11.698;2023-03-08T10:41:14;12.90;67.50
66928;DHT22;59882;45.624;11.698;2023-03-08T10:43:47;13.00;66.80
66928;DHT22;59882;45.624;11.698;2023-03-08T10:46:16;13.10;66.70
66928;DHT22;59882;45.624;11.698;2023-03-08T10:48:43;13.20;66.20
66928;DHT22;59882;45.624;11.698;2023-03-08T10:51:34;13.30;65.70
66928;DHT22;59882;45.624;11.698;2023-03-08T10:54:03;13.40;65.60
66928;DHT22;59882;45.624;11.698;2023-03-08T10:56:43;13.40;65.10
66928;DHT22;59882;45.624;11.698;2023-03-08T10:59:38;13.50;64.00
66928;DHT22;59882;45.624;11.698;2023-03-08T11:04:53;13.70;62.20
66928;DHT22;59882;45.624;11.698;2023-03-08T11:07:32;13.80;63.50
66928;DHT22;59882;45.624;11.698;2023-03-08T11:10:15;13.80;63.40
66928;DHT22;59882;45.624;11.698;2023-03-08T11:12:43;13.90;62.90
66928;DHT22;59882;45.624;11.698;2023-03-08T11:15:16;14.10;63.60
66928;DHT22;59882;45.624;11.698;2023-03-08T11:18:06;14.30;62.80
66928;DHT22;59882;45.624;11.698;2023-03-08T11:20:43;14.40;60.90
66928;DHT22;59882;45.624;11.698;2023-03-08T11:23:36;14.50;61.00
66928;DHT22;59882;45.624;11.698;2023-03-08T11:29:34;14.70;61.80
66928;DHT22;59882;45.624;11.698;2023-03-08T11:37:45;14.90;59.20
66928;DHT22;59882;45.624;11.698;2023-03-08T11:43:15;15.00;58.20
66928;DHT22;59882;45.624;11.698;2023-03-08T11:45:55;15.10;58.80
66928;DHT22;59882;45.624;11.698;2023-03-08T11:48:25;15.20;59.00
66928;DHT22;59882;45.624;11.698;2023-03-08T11:53:55;15.30;58.60
66928;DHT22;59882;45.624;11.698;2023-03-08T11:56:39;15.40;57.10
66928;DHT22;59882;45.624;11.698;2023-03-08T11:59:35;15.50;57.60
66928;DHT22;59882;45.624;11.698;2023-03-08T12:04:51;15.60;57.20
66928;DHT22;59882;45.624;11.698;2023-03-08T12:07:28;15.80;56.60
66928;DHT22;59882;45.624;11.698;2023-03-08T12:10:04;15.90;56.00
66928;DHT22;59882;45.624;11.698;2023-03-08T12:12:44;16.00;54.80
66928;DHT22;59882;45.624;11.698;2023-03-08T12:17:52;16.20;54.80
66928;DHT22;59882;45.624;11.698;2023-03-08T12:20:20;16.40;54.80
66928;DHT22;59882;45.624;11.698;2023-03-08T12:23:03;16.50;54.80
66928;DHT22;59882;45.624;11.698;2023-03-08T12:25:37;16.70;52.50
66928;DHT22;59882;45.624;11.698;2023-03-08T12:28:27;16.80;54.00
66928;DHT22;59882;45.624;11.698;2023-03-08T12:31:07;16.90;52.40
66928;DHT22;59882;45.624;11.698;2023-03-08T12:33:38;17.10;51.60
66928;DHT22;59882;45.624;11.698;2023-03-08T12:36:05;17.20;50.20
66928;DHT22;59882;45.624;11.698;2023-03-08T12:41:05;18.40;52.20
66928;DHT22;59882;45.624;11.698;2023-03-08T12:43:42;19.80;45.30
66928;DHT22;59882;45.624;11.698;2023-03-08T12:46:10;21.50;44.20
66928;DHT22;59882;45.624;11.698;2023-03-08T12:48:47;22.90;39.20
66928;DHT22;59882;45.624;11.698;2023-03-08T12:58:57;26.30;32.20
66928;DHT22;59882;45.624;11.698;2023-03-08T13:01:31;27.00;30.90
66928;DHT22;59882;45.624;11.698;2023-03-08T13:03:58;27.30;30.40
66928;DHT22;59882;45.624;11.698;2023-03-08T13:09:29;27.00;29.70
66928;DHT22;59882;45.624;11.698;2023-03-08T13:12:19;26.40;30.60
66928;DHT22;59882;45.624;11.698;2023-03-08T13:20:15;24.00;33.40
66928;DHT22;59882;45.624;11.698;2023-03-08T13:23:17;23.50;35.30
66928;DHT22;59882;45.624;11.698;2023-03-08T13:28:43;24.00;35.30
66928;DHT22;59882;45.624;11.698;2023-03-08T13:31:18;24.90;33.70
66928;DHT22;59882;45.624;11.698;2023-03-08T13:33:47;25.40;32.50
66928;DHT22;59882;45.624;11.698;2023-03-08T13:36:19;26.00;30.60
66928;DHT22;59882;45.624;11.698;2023-03-08T13:39:01;26.50;30.40
66928;DHT22;59882;45.624;11.698;2023-03-08T13:41:35;26.90;30.10
66928;DHT22;59882;45.624;11.698;2023-03-08T13:44:06;27.40;30.70
66928;DHT22;59882;45.624;11.698;2023-03-08T13:46:35;27.90;31.20
66928;DHT22;59882;45.624;11.698;2023-03-08T13:49:01;28.30;29.30
66928;DHT22;59882;45.624;11.698;2023-03-08T13:51:27;28.60;28.80
66928;DHT22;59882;45.624;11.698;2023-03-08T13:53:54;28.90;28.20
66928;DHT22;59882;45.624;11.698;2023-03-08T13:56:26;29.10;28.30
66928;DHT22;59882;45.624;11.698;2023-03-08T13:58:56;29.30;27.80
66928;DHT22;59882;45.624;11.698;2023-03-08T14:01:24;29.50;27.50
66928;DHT22;59882;45.624;11.698;2023-03-08T14:03:52;29.50;28.70
66928;DHT22;59882;45.624;11.698;2023-03-08T14:06:27;29.50;28.60
66928;DHT22;59882;45.624;11.698;2023-03-08T14:08:54;29.40;27.80
66928;DHT22;59882;45.624;11.698;2023-03-08T14:11:41;29.30;29.70
66928;DHT22;59882;45.624;11.698;2023-03-08T14:14:17;29.30;27.00
66928;DHT22;59882;45.624;11.698;2023-03-08T14:16:45;29.40;28.30
66928;DHT22;59882;45.624;11.698;2023-03-08T14:19:32;29.20;28.40
66928;DHT22;59882;45.624;11.698;2023-03-08T14:22:02;29.00;27.00
66928;DHT22;59882;45.624;11.698;2023-03-08T14:24:33;28.90;28.40
66928;DHT22;59882;45.624;11.698;2023-03-08T14:29:39;28.10;28.70
66928;DHT22;59882;45.624;11.698;2023-03-08T14:37:19;26.20;31.20
66928;DHT22;59882;45.624;11.698;2023-03-08T14:39:48;25.70;31.60
66928;DHT22;59882;45.624;11.698;2023-03-08T14:42:39;25.20;32.30
66928;DHT22;59882;45.624;11.698;2023-03-08T14:45:33;24.60;33.10
66928;DHT22;59882;45.624;11.698;2023-03-08T14:51:01;23.30;34.50
66928;DHT22;59882;45.624;11.698;2023-03-08T14:53:36;22.70;36.10
66928;DHT22;59882;45.624;11.698;2023-03-08T14:56:12;22.30;36.70
66928;DHT22;59882;45.624;11.698;2023-03-08T14:58:44;21.80;37.50
66928;DHT22;59882;45.624;11.698;2023-03-08T15:01:26;21.40;37.90
66928;DHT22;59882;45.624;11.698;2023-03-08T15:03:53;21.10;39.30
66928;DHT22;59882;45.624;11.698;2023-03-08T15:06:25;20.80;40.30
66928;DHT22;59882;45.624;11.698;2023-03-08T15:08:52;20.40;41.10
66928;DHT22;59882;45.624;11.698;2023-03-08T15:11:18;20.20;41.00
66928;DHT22;59882;45.624;11.698;2023-03-08T15:13:44;19.90;41.30
66928;DHT22;59882;45.624;11.698;2023-03-08T15:16:10;19.70;43.10
66928;DHT22;59882;45.624;11.698;2023-03-08T15:18:36;19.40;43.80
66928;DHT22;59882;45.624;11.698;2023-03-08T15:21:02;19.20;43.20
66928;DHT22;59882;45.624;11.698;2023-03-08T15:23:35;19.00;43.90
66928;DHT22;59882;45.624;11.698;2023-03-08T15:26:03;18.90;43.60
66928;DHT22;59882;45.624;11.698;2023-03-08T15:28:29;18.70;43.50
66928;DHT22;59882;45.624;11.698;2023-03-08T15:30:55;18.40;43.80
66928;DHT22;59882;45.624;11.698;2023-03-08T15:33:21;18.30;43.90
66928;DHT22;59882;45.624;11.698;2023-03-08T15:35:47;18.20;44.00
66928;DHT22;59882;45.624;11.698;2023-03-08T15:38:15;18.10;44.70
66928;DHT22;59882;45.624;11.698;2023-03-08T15:40:41;18.00;45.10
66928;DHT22;59882;45.624;11.698;2023-03-08T15:43:08;17.90;45.20
66928;DHT22;59882;45.624;11.698;2023-03-08T15:45:34;17.60;45.30
66928;DHT22;59882;45.624;11.698;2023-03-08T15:48:04;17.50;45.40
66928;DHT22;59882;45.624;11.698;2023-03-08T15:50:31;17.40;45.90
66928;DHT22;59882;45.624;11.698;2023-03-08T15:52:58;17.40;46.70
66928;DHT22;59882;45.624;11.698;2023-03-08T15:55:25;17.30;46.60
66928;DHT22;59882;45.624;11.698;2023-03-08T15:57:51;17.20;46.70
66928;DHT22;59882;45.624;11.698;2023-03-08T16:00:19;17.10;46.70
66928;DHT22;59882;45.624;11.698;2023-03-08T16:02:45;17.00;47.00
66928;DHT22;59882;45.624;11.698;2023-03-08T16:05:12;16.90;47.60
66928;DHT22;59882;45.624;11.698;2023-03-08T16:07:38;16.90;47.90
66928;DHT22;59882;45.624;11.698;2023-03-08T16:10:05;16.80;48.00
66928;DHT22;59882;45.624;11.698;2023-03-08T16:12:31;16.70;48.00
66928;DHT22;59882;45.624;11.698;2023-03-08T16:14:57;16.60;48.30
66928;DHT22;59882;45.624;11.698;2023-03-08T16:17:23;16.40;49.10
66928;DHT22;59882;45.624;11.698;2023-03-08T16:19:52;16.40;49.00
66928;DHT22;59882;45.624;11.698;2023-03-08T16:22:18;16.40;49.40
66928;DHT22;59882;45.624;11.698;2023-03-08T16:24:44;16.20;49.60
66928;DHT22;59882;45.624;11.698;2023-03-08T16:27:10;16.20;49.70
66928;DHT22;59882;45.624;11.698;2023-03-08T16:29:36;16.20;49.80
66928;DHT22;59882;45.624;11.698;2023-03-08T16:32:02;16.30;49.90
66928;DHT22;59882;45.624;11.698;2023-03-08T16:34:28;16.40;50.00
66928;DHT22;59882;45.624;11.698;2023-03-08T16:36:54;16.50;50.30
66928;DHT22;59882;45.624;11.698;2023-03-08T16:39:21;16.60;50.00
66928;DHT22;59882;45.624;11.698;2023-03-08T16:41:46;16.70;49.60
66928;DHT22;59882;45.624;11.698;2023-03-08T16:46:46;16.70;49.20
66928;DHT22;59882;45.624;11.698;2023-03-08T16:49:12;16.60;49.00
66928;DHT22;59882;45.624;11.698;2023-03-08T16:51:37;16.50;49.20
66928;DHT22;59882;45.624;11.698;2023-03-08T16:54:03;16.40;49.60